createdAt,value
2022-08-07T00:02:36.291Z,10.34
2022-08-07T00:05:00.599Z,10.26
2022-08-07T00:07:40.292Z,10.29
2022-08-07T00:10:26.944Z,10.28
2022-08-07T00:13:00.334Z,10.17
2022-08-07T00:15:38.619Z,10.17
2022-08-07T00:18:19.412Z,10.02
2022-08-07T00:20:50.305Z,9.98
2022-08-07T00:23:21.435Z,9.96
2022-08-07T00:25:52.093Z,9.83
2022-08-07T00:28:33.502Z,9.78
2022-08-07T00:31:12.249Z,9.70
2022-08-07T00:33:42.360Z,9.63
2022-08-07T00:36:11.101Z,9.61
2022-08-07T00:38:42.012Z,9.53
2022-08-07T00:41:14.718Z,9.64
2022-08-07T00:44:00.579Z,9.66
2022-08-07T00:46:32.910Z,9.72
2022-08-07T00:49:02.904Z,9.68
2022-08-07T00:51:56.691Z,9.55
2022-08-07T00:54:22.672Z,9.39
2022-08-07T00:56:52.407Z,9.44
2022-08-07T00:59:32.657Z,9.63
2022-08-07T01:02:06.267Z,9.56
2022-08-07T01:04:43.982Z,9.58
2022-08-07T01:07:13.368Z,9.64
2022-08-07T01:10:07.126Z,9.66
2022-08-07T01:12:32.950Z,9.55
2022-08-07T01:15:03.875Z,9.37
2022-08-07T01:17:34.311Z,9.24
2022-08-07T01:20:09.242Z,9.11
2022-08-07T01:22:47.045Z,9.12
2022-08-07T01:25:53.742Z,9.20
2022-08-07T01:28:16.441Z,9.28
2022-08-07T01:30:46.371Z,9.17
2022-08-07T01:33:16.696Z,9.11
2022-08-07T01:35:54.193Z,9.10
2022-08-07T01:38:36.984Z,8.98
2022-08-07T01:41:26.139Z,9.04
2022-08-07T01:43:58.449Z,8.90
2022-08-07T01:46:28.135Z,8.79
2022-08-07T01:49:00.097Z,8.69
2022-08-07T01:52:02.301Z,8.75
2022-08-07T01:54:33.287Z,8.79
2022-08-07T01:57:20.693Z,8.86
2022-08-07T01:59:58.278Z,8.82
2022-08-07T02:03:11.466Z,8.80
2022-08-07T02:05:42.957Z,8.78
2022-08-07T02:08:21.878Z,8.72
2022-08-07T02:10:58.565Z,8.76
2022-08-07T02:13:57.841Z,8.68
2022-08-07T02:16:33.057Z,8.65
2022-08-07T02:19:05.712Z,8.65
2022-08-07T02:21:58.529Z,8.52
2022-08-07T02:24:30.103Z,8.47
2022-08-07T02:27:03.576Z,8.55
2022-08-07T02:29:36.903Z,8.44
2022-08-07T02:32:23.208Z,8.32
2022-08-07T02:34:53.280Z,8.28
2022-08-07T02:37:27.730Z,8.40
2022-08-07T02:40:29.788Z,8.33
2022-08-07T02:43:00.818Z,8.39
2022-08-07T02:46:00.219Z,8.44
2022-08-07T02:48:21.605Z,8.44
2022-08-07T02:50:55.284Z,8.41
2022-08-07T02:53:38.322Z,8.41
2022-08-07T02:56:21.185Z,8.31
2022-08-07T02:58:55.385Z,8.26
2022-08-07T03:01:35.979Z,8.16
2022-08-07T03:04:14.684Z,8.20
2022-08-07T03:06:48.169Z,8.08
2022-08-07T03:09:42.434Z,8.09
2022-08-07T03:12:21.816Z,8.05
2022-08-07T03:15:02.432Z,8.06
2022-08-07T03:17:53.667Z,8.09
2022-08-07T03:20:25.189Z,7.96
2022-08-07T03:22:55.975Z,7.94
2022-08-07T03:25:32.450Z,7.87
2022-08-07T03:28:38.173Z,7.81
2022-08-07T03:31:42.074Z,7.79
2022-08-07T03:34:18.611Z,7.95
2022-08-07T03:36:54.181Z,7.91
2022-08-07T03:39:46.288Z,7.87
2022-08-07T03:42:18.306Z,7.86
2022-08-07T03:44:57.859Z,7.88
2022-08-07T03:47:48.222Z,7.94
2022-08-07T03:50:23.282Z,7.86
2022-08-07T03:52:55.281Z,7.95
2022-08-07T03:55:24.404Z,7.91
2022-08-07T03:59:05.486Z,7.91
2022-08-07T04:01:04.623Z,7.89
2022-08-07T04:03:49.592Z,7.82
2022-08-07T04:06:36.200Z,7.81
2022-08-07T04:09:05.748Z,7.76
2022-08-07T04:12:24.031Z,7.78
2022-08-07T04:14:38.401Z,7.83
2022-08-07T04:17:20.401Z,7.82
2022-08-07T04:19:55.035Z,7.77
2022-08-07T04:22:29.648Z,7.77
2022-08-07T04:25:02.640Z,7.71
2022-08-07T04:27:35.972Z,7.80
2022-08-07T04:30:21.519Z,7.88
2022-08-07T04:33:08.589Z,8.00
2022-08-07T04:35:41.768Z,7.97
2022-08-07T04:38:14.943Z,7.98
2022-08-07T04:40:52.986Z,8.01
2022-08-07T04:44:10.266Z,8.19
2022-08-07T04:46:36.000Z,8.20
2022-08-07T04:49:37.738Z,8.22
2022-08-07T04:52:15.655Z,8.20
2022-08-07T04:54:58.113Z,8.27
2022-08-07T04:58:10.081Z,8.38
2022-08-07T05:00:32.501Z,8.47
2022-08-07T05:03:16.875Z,8.46
2022-08-07T05:06:19.510Z,8.60
2022-08-07T05:09:02.139Z,8.74
2022-08-07T05:11:58.704Z,8.91
2022-08-07T05:14:52.167Z,9.10
2022-08-07T05:17:51.742Z,9.26
2022-08-07T05:20:23.861Z,9.35
2022-08-07T05:22:57.856Z,9.45
2022-08-07T05:26:10.938Z,9.70
2022-08-07T05:28:23.069Z,9.79
2022-08-07T05:30:59.487Z,9.86
2022-08-07T05:33:30.700Z,9.88
2022-08-07T05:36:08.084Z,9.95
2022-08-07T05:38:59.663Z,10.00
2022-08-07T05:42:01.779Z,10.07
2022-08-07T05:44:29.636Z,10.12
2022-08-07T05:47:01.227Z,10.37
2022-08-07T05:49:40.849Z,10.54
2022-08-07T05:52:11.800Z,10.79
2022-08-07T05:54:53.371Z,11.03
2022-08-07T05:57:29.849Z,11.48
2022-08-07T06:00:01.591Z,12.58
2022-08-07T06:02:42.568Z,13.88
2022-08-07T06:05:18.221Z,14.98
2022-08-07T06:08:13.682Z,16.06
2022-08-07T06:10:42.976Z,16.77
2022-08-07T06:13:15.525Z,17.28
2022-08-07T06:15:46.727Z,17.60
2022-08-07T06:18:24.955Z,17.54
2022-08-07T06:22:15.936Z,18.14
2022-08-07T06:24:46.199Z,18.79
2022-08-07T06:26:35.219Z,19.33
2022-08-07T06:29:06.523Z,19.72
2022-08-07T06:31:46.624Z,19.90
2022-08-07T06:34:20.824Z,20.66
2022-08-07T06:36:51.824Z,20.98
2022-08-07T06:40:17.475Z,21.43
2022-08-07T06:42:19.173Z,22.21
2022-08-07T06:45:17.986Z,22.19
2022-08-07T06:47:58.539Z,22.48
2022-08-07T06:50:35.992Z,22.73
2022-08-07T06:53:49.192Z,22.97
2022-08-07T06:56:01.442Z,23.16
2022-08-07T06:58:35.328Z,23.35
2022-08-07T07:01:16.459Z,23.97
2022-08-07T07:03:48.129Z,24.12
2022-08-07T07:06:23.870Z,24.32
2022-08-07T07:08:54.874Z,23.93
2022-08-07T07:12:07.724Z,24.00
2022-08-07T07:14:17.392Z,24.98
2022-08-07T07:16:53.589Z,24.87
2022-08-07T07:19:57.086Z,25.85
2022-08-07T07:22:36.590Z,25.89
2022-08-07T07:26:30.758Z,25.98
2022-08-07T07:28:07.561Z,25.87
2022-08-07T07:30:58.482Z,26.32
2022-08-07T07:33:31.434Z,27.11
2022-08-07T07:36:05.535Z,27.09
2022-08-07T07:38:43.574Z,27.30
2022-08-07T07:41:17.535Z,27.38
2022-08-07T07:44:13.920Z,27.45
2022-08-07T07:46:54.684Z,28.32
2022-08-07T07:50:36.410Z,27.59
2022-08-07T07:52:27.561Z,28.69
2022-08-07T07:55:21.964Z,27.58
2022-08-07T07:57:54.183Z,28.17
2022-08-07T08:00:43.353Z,28.25
2022-08-07T08:04:09.966Z,28.35
2022-08-07T08:06:24.407Z,28.99
2022-08-07T08:08:54.340Z,28.61
2022-08-07T08:11:59.319Z,28.61
2022-08-07T08:14:26.238Z,29.19
2022-08-07T08:16:57.150Z,29.83
2022-08-07T08:20:18.824Z,29.76
2022-08-07T08:23:02.571Z,29.75
2022-08-07T08:25:52.463Z,30.57
2022-08-07T08:28:38.148Z,31.20
2022-08-07T08:31:30.025Z,30.94
2022-08-07T08:34:10.632Z,31.45
2022-08-07T08:36:57.891Z,30.77
2022-08-07T08:39:39.667Z,31.49
2022-08-07T08:42:27.006Z,31.20
2022-08-07T08:45:06.569Z,31.58
2022-08-07T08:48:13.966Z,31.38
2022-08-07T08:50:51.623Z,32.54
2022-08-07T08:53:38.142Z,32.24
2022-08-07T08:56:12.629Z,32.36
2022-08-07T08:58:54.554Z,32.17
2022-08-07T09:01:58.484Z,32.92
2022-08-07T09:04:39.498Z,32.40
2022-08-07T09:07:15.460Z,32.95
2022-08-07T09:09:59.653Z,32.13
2022-08-07T09:12:57.873Z,33.14
2022-08-07T09:16:25.844Z,33.51
2022-08-07T09:19:07.063Z,32.99
2022-08-07T09:24:31.147Z,33.31
2022-08-07T09:25:25.702Z,33.41
2022-08-07T09:28:03.267Z,32.94
2022-08-07T09:30:57.712Z,32.90
2022-08-07T09:33:57.580Z,33.05
2022-08-07T09:37:01.045Z,32.83
2022-08-07T09:39:54.475Z,32.66
2022-08-07T09:42:43.332Z,33.50
2022-08-07T09:47:25.317Z,33.47
2022-08-07T09:50:02.070Z,32.52
2022-08-07T09:52:16.044Z,33.61
2022-08-07T09:54:47.119Z,33.90
2022-08-07T09:58:03.437Z,33.73
2022-08-07T10:00:50.566Z,34.03
2022-08-07T10:04:03.606Z,34.43
2022-08-07T10:06:55.851Z,34.23
2022-08-07T10:10:00.739Z,33.70
2022-08-07T10:13:29.743Z,33.49
2022-08-07T10:16:19.176Z,34.18
2022-08-07T10:19:38.505Z,34.98
2022-08-07T10:22:36.809Z,34.61
2022-08-07T10:25:22.871Z,34.44
2022-08-07T10:28:27.872Z,35.51
2022-08-07T10:31:45.314Z,34.45
2022-08-07T10:34:31.850Z,33.69
2022-08-07T10:38:00.559Z,32.30
2022-08-07T10:40:34.075Z,34.32
2022-08-07T10:43:11.360Z,34.73
2022-08-07T10:45:57.616Z,35.14
2022-08-07T10:48:41.466Z,35.37
2022-08-07T10:51:39.485Z,35.92
2022-08-07T10:54:17.386Z,35.31
2022-08-07T10:56:55.870Z,34.85
2022-08-07T10:59:47.513Z,35.12
2022-08-07T11:02:33.185Z,34.59
2022-08-07T11:05:35.743Z,34.79
2022-08-07T11:08:30.205Z,35.13
2022-08-07T11:11:37.680Z,34.95
2022-08-07T11:14:45.535Z,35.34
2022-08-07T11:17:23.420Z,34.13
2022-08-07T11:20:19.545Z,34.94
2022-08-07T11:23:01.796Z,35.09
2022-08-07T11:26:06.341Z,35.32
2022-08-07T11:28:37.014Z,35.48
2022-08-07T11:31:25.922Z,35.36
2022-08-07T11:34:00.209Z,34.79
2022-08-07T11:36:57.033Z,34.34
2022-08-07T11:40:00.233Z,35.42
2022-08-07T11:42:45.987Z,35.49
2022-08-07T11:45:35.435Z,35.72
2022-08-07T11:48:44.169Z,32.98
2022-08-07T11:51:46.588Z,33.68
2022-08-07T11:55:18.984Z,34.47
2022-08-07T11:58:33.593Z,33.75
2022-08-07T12:01:08.388Z,33.90
2022-08-07T12:03:58.900Z,33.93
2022-08-07T12:06:39.110Z,34.27
2022-08-07T12:09:16.449Z,35.44
2022-08-07T12:12:12.157Z,36.23
2022-08-07T12:14:55.576Z,35.84
2022-08-07T12:17:58.801Z,34.49
2022-08-07T12:20:32.352Z,35.04
2022-08-07T12:24:05.052Z,35.00
2022-08-07T12:29:04.488Z,35.04
2022-08-07T12:31:53.315Z,35.45
2022-08-07T12:34:55.785Z,34.73
2022-08-07T12:37:28.440Z,34.09
2022-08-07T12:40:44.129Z,34.23
2022-08-07T12:43:09.933Z,34.98
2022-08-07T12:45:52.271Z,35.06
2022-08-07T12:48:52.109Z,35.15
2022-08-07T12:51:46.692Z,34.79
2022-08-07T12:54:37.791Z,34.40
2022-08-07T12:57:09.797Z,33.84
2022-08-07T12:59:55.273Z,33.70
2022-08-07T13:02:43.374Z,34.29
2022-08-07T13:06:02.925Z,34.21
2022-08-07T13:08:27.479Z,34.29
2022-08-07T13:11:04.016Z,33.91
2022-08-07T13:13:50.099Z,33.92
2022-08-07T13:16:36.789Z,34.08
2022-08-07T13:19:45.970Z,34.29
2022-08-07T13:22:27.570Z,34.21
2022-08-07T13:25:09.959Z,33.83
2022-08-07T13:28:11.077Z,34.21
2022-08-07T13:30:52.303Z,34.14
2022-08-07T13:34:30.190Z,33.44
2022-08-07T13:36:40.597Z,33.52
2022-08-07T13:39:28.706Z,33.31
2022-08-07T13:42:10.444Z,32.65
2022-08-07T13:44:40.668Z,32.35
2022-08-07T13:47:10.571Z,32.04
2022-08-07T13:50:35.197Z,30.08
2022-08-07T13:52:46.894Z,29.75
2022-08-07T13:55:28.702Z,29.76
2022-08-07T13:58:28.026Z,29.32
2022-08-07T14:01:10.731Z,29.55
2022-08-07T14:04:07.731Z,29.54
2022-08-07T14:07:00.851Z,28.79
2022-08-07T14:10:12.350Z,28.27
2022-08-07T14:12:28.200Z,28.08
2022-08-07T14:15:01.552Z,28.05
2022-08-07T14:18:12.196Z,27.67
2022-08-07T14:20:43.149Z,27.43
2022-08-07T14:23:31.497Z,27.29
2022-08-07T14:26:28.456Z,27.31
2022-08-07T14:29:08.486Z,27.30
2022-08-07T14:31:43.439Z,27.38
2022-08-07T14:34:27.266Z,27.12
2022-08-07T14:37:03.658Z,26.87
2022-08-07T14:40:18.045Z,26.35
2022-08-07T14:42:32.320Z,26.45
2022-08-07T14:45:21.855Z,26.25
2022-08-07T14:47:53.076Z,26.24
2022-08-07T14:50:28.335Z,26.27
2022-08-07T14:53:07.878Z,25.70
2022-08-07T14:55:47.904Z,25.75
2022-08-07T14:58:36.601Z,25.90
2022-08-07T15:01:21.326Z,25.80
2022-08-07T15:03:53.311Z,25.46
2022-08-07T15:06:28.610Z,25.43
2022-08-07T15:09:02.817Z,25.37
2022-08-07T15:12:08.139Z,25.38
2022-08-07T15:14:56.109Z,25.25
2022-08-07T15:17:54.525Z,25.21
2022-08-07T15:25:02.097Z,24.97
2022-08-07T15:26:59.243Z,24.97
2022-08-07T15:30:08.843Z,24.96
2022-08-07T15:32:39.424Z,25.03
2022-08-07T15:35:14.480Z,25.00
2022-08-07T15:38:17.886Z,24.81
2022-08-07T15:41:00.430Z,24.79
2022-08-07T15:44:02.208Z,24.62
2022-08-07T15:52:30.562Z,24.45
2022-08-07T15:55:04.427Z,24.49
2022-08-07T15:57:39.974Z,24.54
2022-08-07T16:00:36.878Z,24.51
2022-08-07T16:03:20.961Z,24.22
2022-08-07T16:06:12.370Z,24.07
2022-08-07T16:08:45.669Z,24.04
2022-08-07T16:11:26.915Z,23.86
2022-08-07T16:14:22.301Z,23.88
2022-08-07T16:16:57.547Z,23.91
2022-08-07T16:19:59.238Z,23.78
2022-08-07T16:22:38.964Z,23.79
2022-08-07T16:25:54.692Z,23.77
2022-08-07T16:30:08.698Z,23.62
2022-08-07T16:31:51.545Z,23.57
2022-08-07T16:34:39.407Z,23.54
2022-08-07T16:38:05.527Z,23.41
2022-08-07T16:40:23.011Z,23.42
2022-08-07T16:43:01.600Z,23.31
2022-08-07T16:46:47.620Z,23.31
2022-08-07T16:50:28.932Z,23.31
2022-08-07T16:52:41.749Z,23.25
2022-08-07T16:54:54.509Z,23.14
2022-08-07T16:58:01.929Z,23.05
2022-08-07T17:00:29.867Z,23.05
2022-08-07T17:03:09.774Z,23.00
2022-08-07T17:06:19.698Z,22.92
2022-08-07T17:09:09.787Z,22.89
2022-08-07T17:12:01.243Z,22.82
2022-08-07T17:17:44.219Z,22.62
2022-08-07T17:20:21.462Z,22.62
2022-08-07T17:22:58.474Z,22.54
2022-08-07T17:25:47.846Z,22.45
2022-08-07T17:28:25.228Z,22.39
2022-08-07T17:31:15.930Z,22.34
2022-08-07T17:34:15.314Z,22.29
2022-08-07T17:36:57.779Z,22.21
2022-08-07T17:39:57.950Z,22.15
2022-08-07T17:42:58.501Z,22.02
2022-08-07T17:45:32.076Z,21.97
2022-08-07T17:48:06.646Z,21.96
2022-08-07T17:51:03.405Z,21.90
2022-08-07T17:54:00.407Z,21.80
2022-08-07T17:56:33.878Z,21.72
2022-08-07T17:59:05.517Z,21.72
2022-08-07T18:01:43.604Z,21.65
2022-08-07T18:04:30.866Z,21.55
2022-08-07T18:07:24.645Z,21.46
2022-08-07T18:10:10.385Z,21.32
2022-08-07T18:13:15.271Z,21.23
2022-08-07T18:15:57.023Z,21.07
2022-08-07T18:18:45.696Z,21.00
2022-08-07T18:21:42.064Z,20.91
2022-08-07T18:24:32.974Z,20.80
2022-08-07T18:27:25.874Z,20.72
2022-08-07T18:30:31.206Z,20.66
2022-08-07T18:33:22.462Z,20.57
2022-08-07T18:36:16.722Z,20.36
2022-08-07T18:38:57.159Z,20.21
2022-08-07T18:41:45.769Z,20.15
2022-08-07T18:44:27.848Z,20.08
2022-08-07T18:47:02.264Z,19.96
2022-08-07T18:50:31.693Z,19.92
2022-08-07T18:55:41.912Z,19.80
2022-08-07T18:58:31.407Z,19.75
2022-08-07T19:01:06.836Z,19.62
2022-08-07T19:03:41.644Z,19.58
2022-08-07T19:06:22.584Z,19.43
2022-08-07T19:09:09.438Z,19.25
2022-08-07T19:12:05.443Z,19.08
2022-08-07T19:14:42.979Z,19.04
2022-08-07T19:18:01.757Z,18.88
2022-08-07T19:20:29.705Z,18.77
2022-08-07T19:23:18.978Z,18.58
2022-08-07T19:26:24.982Z,18.46
2022-08-07T19:30:56.703Z,18.37
2022-08-07T19:32:05.351Z,18.22
2022-08-07T19:34:34.428Z,18.11
2022-08-07T19:37:17.633Z,18.07
2022-08-07T19:39:57.867Z,18.01
2022-08-07T19:42:31.564Z,17.94
2022-08-07T19:45:08.437Z,17.85
2022-08-07T19:47:42.074Z,17.78
2022-08-07T19:50:40.815Z,17.74
2022-08-07T19:53:01.106Z,17.63
2022-08-07T19:55:57.473Z,17.53
2022-08-07T19:58:29.223Z,17.41
2022-08-07T20:00:58.485Z,17.36
2022-08-07T20:03:34.581Z,17.25
2022-08-07T20:06:06.005Z,17.19
2022-08-07T20:08:36.976Z,17.15
2022-08-07T20:11:10.171Z,17.09
2022-08-07T20:13:43.324Z,17.05
2022-08-07T20:16:32.350Z,16.96
2022-08-07T20:19:05.726Z,16.97
2022-08-07T20:21:41.830Z,16.94
2022-08-07T20:24:19.184Z,16.84
2022-08-07T20:26:50.208Z,16.73
2022-08-07T20:29:48.906Z,16.60
2022-08-07T20:32:22.114Z,16.58
2022-08-07T20:34:54.922Z,16.58
2022-08-07T20:37:25.684Z,16.49
2022-08-07T20:40:03.265Z,16.48
2022-08-07T20:42:34.540Z,16.34
2022-08-07T20:46:24.951Z,16.18
2022-08-07T20:47:58.195Z,16.06
2022-08-07T20:50:30.608Z,15.89
2022-08-07T20:52:59.630Z,15.79
2022-08-07T20:55:28.410Z,15.73
2022-08-07T20:58:11.819Z,15.65
2022-08-07T21:00:58.542Z,15.59
2022-08-07T21:03:28.660Z,15.48
2022-08-07T21:06:21.738Z,15.38
2022-08-07T21:09:00.870Z,15.34
2022-08-07T21:11:46.036Z,15.28
2022-08-07T21:14:33.817Z,15.19
2022-08-07T21:18:00.362Z,15.17
2022-08-07T21:20:05.215Z,15.05
2022-08-07T21:22:39.936Z,14.97
2022-08-07T21:25:18.181Z,14.83
2022-08-07T21:27:53.556Z,14.75
2022-08-07T21:30:24.960Z,14.70
2022-08-07T21:33:02.091Z,14.59
2022-08-07T21:36:04.849Z,14.55
2022-08-07T21:38:29.558Z,14.46
2022-08-07T21:41:00.610Z,14.39
2022-08-07T21:43:47.371Z,14.42
2022-08-07T21:46:32.132Z,14.36
2022-08-07T21:49:15.059Z,14.36
2022-08-07T21:52:03.602Z,14.34
2022-08-07T21:54:39.474Z,14.33
2022-08-07T21:57:31.584Z,14.32
2022-08-07T22:00:22.287Z,14.33
2022-08-07T22:02:56.069Z,14.36
2022-08-07T22:05:44.768Z,14.31
2022-08-07T22:08:18.507Z,14.25
2022-08-07T22:10:51.861Z,14.21
2022-08-07T22:13:24.359Z,14.17
2022-08-07T22:16:43.305Z,14.07
2022-08-07T22:19:08.362Z,14.08
2022-08-07T22:22:02.355Z,14.14
2022-08-07T22:24:34.230Z,14.02
2022-08-07T22:27:07.602Z,13.93
2022-08-07T22:29:48.360Z,13.87
2022-08-07T22:32:24.629Z,13.90
2022-08-07T22:34:54.336Z,13.90
2022-08-07T22:38:01.762Z,13.83
2022-08-07T22:40:19.969Z,13.71
2022-08-07T22:42:51.071Z,13.64
2022-08-07T22:46:21.741Z,13.56
2022-08-07T22:48:54.797Z,13.52
2022-08-07T22:51:36.454Z,13.45
2022-08-07T22:54:16.601Z,13.29
2022-08-07T22:56:52.245Z,13.20
2022-08-07T22:59:32.965Z,13.14
2022-08-07T23:02:08.251Z,13.14
2022-08-07T23:05:21.896Z,13.10
2022-08-07T23:07:52.770Z,13.09
2022-08-07T23:10:39.652Z,13.06
2022-08-07T23:13:29.421Z,12.99
2022-08-07T23:16:43.287Z,12.91
2022-08-07T23:19:13.948Z,12.88
2022-08-07T23:21:50.402Z,12.84
2022-08-07T23:24:31.224Z,12.82
2022-08-07T23:27:07.770Z,12.80
2022-08-07T23:30:39.682Z,12.70
2022-08-07T23:34:34.211Z,12.63
2022-08-07T23:36:04.724Z,12.56
2022-08-07T23:38:42.381Z,12.45
2022-08-07T23:41:20.788Z,12.44
2022-08-07T23:44:00.350Z,12.40
2022-08-07T23:46:37.789Z,12.45
2022-08-07T23:49:16.447Z,12.41
2022-08-07T23:53:01.038Z,12.35
2022-08-07T23:54:46.114Z,12.30
2022-08-07T23:57:24.485Z,12.22
